createdAt,value
2023-03-17T00:02:12.439Z,84.23
2023-03-17T00:04:40.522Z,85.10
2023-03-17T00:07:15.705Z,84.64
2023-03-17T00:09:45.347Z,85.51
2023-03-17T00:12:15.443Z,85.93
2023-03-17T00:14:46.911Z,86.23
2023-03-17T00:17:16.400Z,86.35
2023-03-17T00:19:44.785Z,87.14
2023-03-17T00:22:22.306Z,87.90
2023-03-17T00:24:50.388Z,86.25
2023-03-17T00:27:19.169Z,86.09
2023-03-17T00:29:47.192Z,85.87
2023-03-17T00:32:19.554Z,85.87
2023-03-17T00:34:48.436Z,84.87
2023-03-17T00:37:16.193Z,86.14
2023-03-17T00:39:44.026Z,86.41
2023-03-17T00:42:13.662Z,87.14
2023-03-17T00:44:41.671Z,87.09
2023-03-17T00:47:12.062Z,86.97
2023-03-17T00:49:41.974Z,86.93
2023-03-17T00:52:10.828Z,86.98
2023-03-17T00:54:40.184Z,85.47
2023-03-17T00:57:10.976Z,85.54
2023-03-17T00:59:42.736Z,86.48
2023-03-17T01:02:13.957Z,87.69
2023-03-17T01:04:45.591Z,88.29
2023-03-17T01:07:15.606Z,84.19
2023-03-17T01:09:45.313Z,82.91
2023-03-17T01:12:16.526Z,84.24
2023-03-17T01:14:44.260Z,83.95
2023-03-17T01:17:18.811Z,83.21
2023-03-17T01:19:48.103Z,83.54
2023-03-17T01:22:15.947Z,83.55
2023-03-17T01:24:44.761Z,83.39
2023-03-17T01:27:13.042Z,82.95
2023-03-17T01:29:41.673Z,81.23
2023-03-17T01:32:09.540Z,81.28
2023-03-17T01:34:38.225Z,81.07
2023-03-17T01:37:07.119Z,81.67
2023-03-17T01:39:35.420Z,81.83
2023-03-17T01:42:04.454Z,81.83
2023-03-17T01:44:33.633Z,82.04
2023-03-17T01:47:01.456Z,83.51
2023-03-17T01:49:36.901Z,84.71
2023-03-17T01:52:15.164Z,83.09
2023-03-17T01:55:12.710Z,83.22
2023-03-17T01:57:56.541Z,83.26
2023-03-17T02:00:28.787Z,85.12
2023-03-17T02:02:58.521Z,85.35
2023-03-17T02:05:31.155Z,85.13
2023-03-17T02:08:00.765Z,84.17
2023-03-17T02:10:30.371Z,82.88
2023-03-17T02:13:04.086Z,83.10
2023-03-17T02:15:52.362Z,82.85
2023-03-17T02:18:24.051Z,82.34
2023-03-17T02:21:39.642Z,83.03
2023-03-17T02:24:48.882Z,83.47
2023-03-17T02:27:39.660Z,82.82
2023-03-17T02:30:13.147Z,82.60
2023-03-17T02:32:41.414Z,83.79
2023-03-17T02:35:10.388Z,83.91
2023-03-17T02:37:39.140Z,86.02
2023-03-17T02:40:11.428Z,84.63
2023-03-17T02:42:41.299Z,83.81
2023-03-17T02:45:13.314Z,83.01
2023-03-17T02:47:42.371Z,82.62
2023-03-17T02:50:24.027Z,83.05
2023-03-17T02:52:52.247Z,84.46
2023-03-17T02:55:20.874Z,85.68
2023-03-17T02:57:49.581Z,84.15
2023-03-17T03:00:18.041Z,82.80
2023-03-17T03:02:47.156Z,83.32
2023-03-17T03:05:15.031Z,83.55
2023-03-17T03:07:43.734Z,84.29
2023-03-17T03:10:12.071Z,84.47
2023-03-17T03:12:40.704Z,83.22
2023-03-17T03:15:09.862Z,82.98
2023-03-17T03:17:37.705Z,82.35
2023-03-17T03:20:06.904Z,83.56
2023-03-17T03:22:34.657Z,84.95
2023-03-17T03:25:03.567Z,85.26
2023-03-17T03:27:32.664Z,86.25
2023-03-17T03:30:01.167Z,85.73
2023-03-17T03:32:28.986Z,85.36
2023-03-17T03:34:57.030Z,86.14
2023-03-17T03:37:26.167Z,87.77
2023-03-17T03:39:53.920Z,88.51
2023-03-17T03:42:21.691Z,88.74
2023-03-17T03:44:49.451Z,88.36
2023-03-17T03:47:19.048Z,88.46
2023-03-17T03:49:46.891Z,88.08
2023-03-17T03:52:15.817Z,86.61
2023-03-17T03:54:44.640Z,87.84
2023-03-17T03:57:13.445Z,87.30
2023-03-17T03:59:42.961Z,87.86
2023-03-17T04:02:11.845Z,86.94
2023-03-17T04:04:42.270Z,87.04
2023-03-17T04:07:11.394Z,88.18
2023-03-17T04:09:39.469Z,89.18
2023-03-17T04:12:09.396Z,89.54
2023-03-17T04:14:38.215Z,89.55
2023-03-17T04:17:07.000Z,89.48
2023-03-17T04:19:34.924Z,89.16
2023-03-17T04:22:02.752Z,90.11
2023-03-17T04:24:32.457Z,90.50
2023-03-17T04:27:05.868Z,88.87
2023-03-17T04:29:34.580Z,89.14
2023-03-17T04:32:04.909Z,89.25
2023-03-17T04:34:32.846Z,90.27
2023-03-17T04:37:00.753Z,89.93
2023-03-17T04:39:29.200Z,89.90
2023-03-17T04:41:57.100Z,90.56
2023-03-17T04:44:25.006Z,89.21
2023-03-17T04:46:53.759Z,88.80
2023-03-17T04:49:22.772Z,89.94
2023-03-17T04:51:50.616Z,90.47
2023-03-17T04:54:18.751Z,90.04
2023-03-17T04:56:47.601Z,89.38
2023-03-17T04:59:16.437Z,89.12
2023-03-17T05:01:45.301Z,88.74
2023-03-17T05:04:22.095Z,88.43
2023-03-17T05:07:00.067Z,88.20
2023-03-17T05:09:28.899Z,86.99
2023-03-17T05:11:56.790Z,85.62
2023-03-17T05:14:24.746Z,85.66
2023-03-17T05:16:54.351Z,86.86
2023-03-17T05:19:23.091Z,86.69
2023-03-17T05:21:51.675Z,87.19
2023-03-17T05:24:19.598Z,86.94
2023-03-17T05:26:47.412Z,86.53
2023-03-17T05:29:15.208Z,84.92
2023-03-17T05:31:43.485Z,83.85
2023-03-17T05:34:11.445Z,83.99
2023-03-17T05:36:39.363Z,79.44
2023-03-17T05:39:09.234Z,77.23
2023-03-17T05:41:38.050Z,76.14
2023-03-17T05:44:06.806Z,75.77
2023-03-17T05:46:35.636Z,75.73
2023-03-17T05:49:04.499Z,76.69
2023-03-17T05:51:34.778Z,78.78
2023-03-17T05:54:04.767Z,78.33
2023-03-17T05:56:34.553Z,77.08
2023-03-17T05:59:03.494Z,71.15
2023-03-17T06:01:32.518Z,67.34
2023-03-17T06:04:01.951Z,58.50
2023-03-17T06:06:29.897Z,59.50
2023-03-17T06:08:59.010Z,52.73
2023-03-17T06:11:27.560Z,49.86
2023-03-17T06:13:57.201Z,47.03
2023-03-17T06:16:29.048Z,44.81
2023-03-17T06:18:58.590Z,41.26
2023-03-17T06:21:27.472Z,37.69
2023-03-17T06:23:57.002Z,38.17
2023-03-17T06:26:26.338Z,35.10
2023-03-17T06:28:56.270Z,37.19
2023-03-17T06:31:26.646Z,35.72
2023-03-17T06:33:55.402Z,35.83
2023-03-17T06:36:26.081Z,36.28
2023-03-17T06:38:55.631Z,37.42
2023-03-17T06:41:25.285Z,39.77
2023-03-17T06:43:54.035Z,39.09
2023-03-17T06:46:23.518Z,38.79
2023-03-17T06:48:52.152Z,34.78
2023-03-17T06:51:21.626Z,34.69
2023-03-17T06:53:50.225Z,33.14
2023-03-17T06:56:29.400Z,33.36
2023-03-17T06:58:59.041Z,33.71
2023-03-17T07:01:28.854Z,32.71
2023-03-17T07:03:58.897Z,32.33
2023-03-17T07:06:28.771Z,29.15
2023-03-17T07:09:00.941Z,31.17
2023-03-17T07:11:32.808Z,32.36
2023-03-17T07:14:01.617Z,30.11
2023-03-17T07:16:31.155Z,32.83
2023-03-17T07:19:02.223Z,31.54
2023-03-17T07:21:31.813Z,33.89
2023-03-17T07:24:00.469Z,42.17
2023-03-17T07:26:29.995Z,42.54
2023-03-17T07:29:01.003Z,44.39
2023-03-17T07:31:30.798Z,45.54
2023-03-17T07:33:59.551Z,45.87
2023-03-17T07:36:28.207Z,46.24
2023-03-17T07:38:57.056Z,46.01
2023-03-17T07:41:25.741Z,47.00
2023-03-17T07:43:53.469Z,45.35
2023-03-17T07:46:22.292Z,44.37
2023-03-17T07:48:50.148Z,43.42
2023-03-17T07:51:22.402Z,43.74
2023-03-17T07:53:52.051Z,44.38
2023-03-17T07:56:21.508Z,43.13
2023-03-17T07:58:49.180Z,43.28
2023-03-17T08:01:17.708Z,44.59
2023-03-17T08:03:46.697Z,43.76
2023-03-17T08:06:14.452Z,42.42
2023-03-17T08:08:42.264Z,42.71
2023-03-17T08:11:10.862Z,41.68
2023-03-17T08:13:39.472Z,42.24
2023-03-17T08:16:08.196Z,42.49
2023-03-17T08:18:37.270Z,41.94
2023-03-17T08:21:06.356Z,42.22
2023-03-17T08:23:35.080Z,41.64
2023-03-17T08:26:05.200Z,41.29
2023-03-17T08:28:34.661Z,41.97
2023-03-17T08:31:18.204Z,42.39
2023-03-17T08:33:51.492Z,42.21
2023-03-17T08:36:21.437Z,41.05
2023-03-17T08:38:50.408Z,39.53
2023-03-17T08:41:22.948Z,39.56
2023-03-17T08:43:51.865Z,38.49
2023-03-17T08:46:27.239Z,38.73
2023-03-17T08:48:58.232Z,39.82
2023-03-17T08:51:34.906Z,39.30
2023-03-17T08:54:06.163Z,37.98
2023-03-17T08:56:34.340Z,38.50
2023-03-17T08:59:02.127Z,37.67
2023-03-17T09:01:29.879Z,36.25
2023-03-17T09:03:59.382Z,35.81
2023-03-17T09:06:27.808Z,37.56
2023-03-17T09:08:55.798Z,38.42
2023-03-17T09:11:29.245Z,38.12
2023-03-17T09:13:59.317Z,37.48
2023-03-17T09:16:28.661Z,36.22
2023-03-17T09:18:58.269Z,34.79
2023-03-17T09:21:28.138Z,35.01
2023-03-17T09:23:55.954Z,34.56
2023-03-17T09:26:25.316Z,32.75
2023-03-17T09:28:53.452Z,34.98
2023-03-17T09:31:21.709Z,34.01
2023-03-17T09:33:49.469Z,33.33
2023-03-17T09:36:17.247Z,33.79
2023-03-17T09:38:47.971Z,34.28
2023-03-17T09:41:23.661Z,32.41
2023-03-17T09:44:38.732Z,34.18
2023-03-17T09:47:59.150Z,34.50
2023-03-17T09:50:54.170Z,32.37
2023-03-17T09:54:04.297Z,32.73
2023-03-17T09:56:35.993Z,33.10
2023-03-17T09:59:35.344Z,33.31
2023-03-17T10:02:03.230Z,32.65
2023-03-17T10:04:32.408Z,32.96
2023-03-17T10:07:06.832Z,33.69
2023-03-17T10:10:04.261Z,33.40
2023-03-17T10:13:17.850Z,33.65
2023-03-17T10:16:07.795Z,33.81
2023-03-17T10:18:56.956Z,33.08
2023-03-17T10:21:41.788Z,33.14
2023-03-17T10:24:12.387Z,32.39
2023-03-17T10:26:53.443Z,34.10
2023-03-17T10:29:24.120Z,33.22
2023-03-17T10:31:56.367Z,34.55
2023-03-17T10:34:37.738Z,33.76
2023-03-17T10:37:09.833Z,33.18
2023-03-17T10:39:50.468Z,33.40
2023-03-17T10:42:33.140Z,33.66
2023-03-17T10:45:28.054Z,33.31
2023-03-17T10:48:00.004Z,32.65
2023-03-17T10:50:49.597Z,34.45
2023-03-17T10:53:29.959Z,33.00
2023-03-17T10:56:20.460Z,31.95
2023-03-17T10:58:51.595Z,32.55
2023-03-17T11:01:36.597Z,32.46
2023-03-17T11:04:33.978Z,32.81
2023-03-17T11:07:34.777Z,34.21
2023-03-17T11:10:24.804Z,32.47
2023-03-17T11:13:02.106Z,34.92
2023-03-17T11:15:48.295Z,33.02
2023-03-17T11:18:52.852Z,32.52
2023-03-17T11:21:32.076Z,33.37
2023-03-17T11:24:25.416Z,33.32
2023-03-17T11:27:31.779Z,32.39
2023-03-17T11:30:38.550Z,32.78
2023-03-17T11:33:34.811Z,32.96
2023-03-17T11:36:36.465Z,32.96
2023-03-17T11:39:20.893Z,31.83
2023-03-17T11:42:51.554Z,32.36
2023-03-17T11:46:13.424Z,33.35
2023-03-17T11:49:14.960Z,32.37
2023-03-17T11:52:16.549Z,33.08
2023-03-17T11:55:04.853Z,32.42
2023-03-17T11:58:10.749Z,33.01
2023-03-17T12:00:52.687Z,33.08
2023-03-17T12:03:48.860Z,33.03
2023-03-17T12:06:33.927Z,33.23
2023-03-17T12:09:20.430Z,33.46
2023-03-17T12:11:52.746Z,33.24
2023-03-17T12:14:36.128Z,31.86
2023-03-17T12:17:27.956Z,31.75
2023-03-17T12:20:49.000Z,32.63
2023-03-17T12:23:56.832Z,32.49
2023-03-17T12:26:53.978Z,32.39
2023-03-17T12:30:08.048Z,32.91
2023-03-17T12:33:21.849Z,32.09
2023-03-17T12:35:52.284Z,32.87
2023-03-17T12:38:40.407Z,31.98
2023-03-17T12:42:02.247Z,32.24
2023-03-17T12:45:15.130Z,32.44
2023-03-17T12:48:08.211Z,32.94
2023-03-17T12:51:35.060Z,32.48
2023-03-17T12:54:04.240Z,31.79
2023-03-17T12:56:34.591Z,32.57
2023-03-17T12:59:09.927Z,32.02
2023-03-17T13:01:59.346Z,33.23
2023-03-17T13:04:37.037Z,31.37
2023-03-17T13:07:22.261Z,31.93
2023-03-17T13:09:57.538Z,31.41
2023-03-17T13:12:40.527Z,32.14
2023-03-17T13:15:39.833Z,30.57
2023-03-17T13:18:36.841Z,30.38
2023-03-17T13:21:12.807Z,31.50
2023-03-17T13:24:16.850Z,32.19
2023-03-17T13:27:01.928Z,31.07
2023-03-17T13:29:32.832Z,32.46
2023-03-17T13:32:34.102Z,31.80
2023-03-17T13:35:01.820Z,32.60
2023-03-17T13:37:53.084Z,32.00
2023-03-17T13:40:24.248Z,33.17
2023-03-17T13:43:52.294Z,32.43
2023-03-17T13:46:40.131Z,33.88
2023-03-17T13:49:21.463Z,32.38
2023-03-17T13:52:30.569Z,31.20
2023-03-17T13:55:20.721Z,32.89
2023-03-17T13:58:24.339Z,32.45
2023-03-17T14:01:03.877Z,34.22
2023-03-17T14:03:51.370Z,35.21
2023-03-17T14:06:28.204Z,32.73
2023-03-17T14:09:08.410Z,32.80
2023-03-17T14:11:40.341Z,33.67
2023-03-17T14:15:07.546Z,32.98
2023-03-17T14:17:54.145Z,32.73
2023-03-17T14:20:27.430Z,33.16
2023-03-17T14:23:01.731Z,32.74
2023-03-17T14:25:40.768Z,32.97
2023-03-17T14:28:16.008Z,32.16
2023-03-17T14:31:02.114Z,33.25
2023-03-17T14:33:38.825Z,32.51
2023-03-17T14:36:14.313Z,32.75
2023-03-17T14:38:57.202Z,33.67
2023-03-17T14:41:28.454Z,34.28
2023-03-17T14:44:02.329Z,34.84
2023-03-17T14:46:37.186Z,36.35
2023-03-17T14:49:19.165Z,35.75
2023-03-17T14:51:53.695Z,35.58
2023-03-17T14:54:32.876Z,34.97
2023-03-17T14:57:14.921Z,35.23
2023-03-17T15:00:16.638Z,35.43
2023-03-17T15:02:59.893Z,36.67
2023-03-17T15:05:41.437Z,35.80
2023-03-17T15:08:44.490Z,35.43
2023-03-17T15:11:22.352Z,36.52
2023-03-17T15:14:04.924Z,35.63
2023-03-17T15:16:36.578Z,37.01
2023-03-17T15:19:40.721Z,38.32
2023-03-17T15:22:36.152Z,37.25
2023-03-17T15:25:38.652Z,36.75
2023-03-17T15:28:18.428Z,36.75
2023-03-17T15:30:54.461Z,36.15
2023-03-17T15:33:37.130Z,37.09
2023-03-17T15:36:07.946Z,35.57
2023-03-17T15:38:39.148Z,36.02
2023-03-17T15:41:07.568Z,36.85
2023-03-17T15:43:35.502Z,37.03
2023-03-17T15:46:22.465Z,36.65
2023-03-17T15:48:50.570Z,36.33
2023-03-17T15:51:19.286Z,37.57
2023-03-17T15:53:48.886Z,37.67
2023-03-17T15:56:21.959Z,37.55
2023-03-17T15:58:52.472Z,37.74
2023-03-17T16:01:20.970Z,38.17
2023-03-17T16:03:49.650Z,39.59
2023-03-17T16:06:22.461Z,38.38
2023-03-17T16:08:52.232Z,40.08
2023-03-17T16:11:28.447Z,39.38
2023-03-17T16:13:59.758Z,39.80
2023-03-17T16:16:39.217Z,39.45
2023-03-17T16:19:20.316Z,38.56
2023-03-17T16:21:49.148Z,39.51
2023-03-17T16:24:24.152Z,39.17
2023-03-17T16:26:54.382Z,39.59
2023-03-17T16:29:24.806Z,40.70
2023-03-17T16:31:54.386Z,40.28
2023-03-17T16:34:24.416Z,41.52
2023-03-17T16:36:52.179Z,43.17
2023-03-17T16:39:24.704Z,40.98
2023-03-17T16:41:55.334Z,41.74
2023-03-17T16:44:24.094Z,43.13
2023-03-17T16:46:53.757Z,43.17
2023-03-17T16:49:23.369Z,43.47
2023-03-17T16:51:52.852Z,42.85
2023-03-17T16:54:21.504Z,45.71
2023-03-17T16:56:51.525Z,45.84
2023-03-17T16:59:24.568Z,46.66
2023-03-17T17:01:55.010Z,44.46
2023-03-17T17:04:26.835Z,46.04
2023-03-17T17:06:56.792Z,47.95
2023-03-17T17:09:26.241Z,46.67
2023-03-17T17:11:56.194Z,48.21
2023-03-17T17:14:24.865Z,47.89
2023-03-17T17:16:54.528Z,46.48
2023-03-17T17:19:24.043Z,45.25
2023-03-17T17:21:51.881Z,46.55
2023-03-17T17:24:19.707Z,46.31
2023-03-17T17:26:47.576Z,47.56
2023-03-17T17:29:17.175Z,49.53
2023-03-17T17:31:46.843Z,47.62
2023-03-17T17:34:16.363Z,48.05
2023-03-17T17:36:46.082Z,50.69
2023-03-17T17:39:15.686Z,52.30
2023-03-17T17:41:45.376Z,50.47
2023-03-17T17:44:16.011Z,52.16
2023-03-17T17:46:45.693Z,55.41
2023-03-17T17:49:16.198Z,54.39
2023-03-17T17:51:45.174Z,53.82
2023-03-17T17:54:13.082Z,54.49
2023-03-17T17:56:46.866Z,53.37
2023-03-17T17:59:17.489Z,51.43
2023-03-17T18:01:48.136Z,52.96
2023-03-17T18:04:18.128Z,54.74
2023-03-17T18:06:47.965Z,52.51
2023-03-17T18:09:18.710Z,55.05
2023-03-17T18:11:51.321Z,57.14
2023-03-17T18:14:21.467Z,57.61
2023-03-17T18:16:52.312Z,58.29
2023-03-17T18:19:23.304Z,59.69
2023-03-17T18:21:53.102Z,56.60
2023-03-17T18:24:22.875Z,60.25
2023-03-17T18:26:52.712Z,60.78
2023-03-17T18:29:22.544Z,62.44
2023-03-17T18:31:56.522Z,61.51
2023-03-17T18:34:37.930Z,60.20
2023-03-17T18:37:08.956Z,62.24
2023-03-17T18:39:41.309Z,63.33
2023-03-17T18:42:12.038Z,63.06
2023-03-17T18:44:41.805Z,63.59
2023-03-17T18:47:13.486Z,64.06
2023-03-17T18:49:46.071Z,62.67
2023-03-17T18:52:17.562Z,62.99
2023-03-17T18:54:48.099Z,63.87
2023-03-17T18:57:18.717Z,60.00
2023-03-17T18:59:49.350Z,59.12
2023-03-17T19:02:20.714Z,61.37
2023-03-17T19:04:51.587Z,61.85
2023-03-17T19:07:22.456Z,62.51
2023-03-17T19:09:53.077Z,67.29
2023-03-17T19:12:24.102Z,64.73
2023-03-17T19:14:54.985Z,67.42
2023-03-17T19:17:25.674Z,62.67
2023-03-17T19:19:58.051Z,66.58
2023-03-17T19:22:28.069Z,65.30
2023-03-17T19:24:57.781Z,63.51
2023-03-17T19:27:27.683Z,64.30
2023-03-17T19:29:57.383Z,64.91
2023-03-17T19:32:27.211Z,64.86
2023-03-17T19:34:57.848Z,67.12
2023-03-17T19:37:27.565Z,69.02
2023-03-17T19:39:57.218Z,69.46
2023-03-17T19:42:27.871Z,70.25
2023-03-17T19:44:58.445Z,72.68
2023-03-17T19:47:28.092Z,72.31
2023-03-17T19:49:58.652Z,73.30
2023-03-17T19:52:29.294Z,72.22
2023-03-17T19:54:59.180Z,71.75
2023-03-17T19:57:29.768Z,71.91
2023-03-17T20:00:00.298Z,74.71
2023-03-17T20:02:30.975Z,75.04
2023-03-17T20:05:00.902Z,74.61
2023-03-17T20:07:32.788Z,74.00
2023-03-17T20:10:03.841Z,74.71
2023-03-17T20:12:38.120Z,74.59
2023-03-17T20:15:12.541Z,75.15
2023-03-17T20:17:43.651Z,74.61
2023-03-17T20:20:14.673Z,75.38
2023-03-17T20:22:45.313Z,75.64
2023-03-17T20:25:15.039Z,75.72
2023-03-17T20:27:45.569Z,77.42
2023-03-17T20:30:17.154Z,77.78
2023-03-17T20:32:45.342Z,76.96
2023-03-17T20:35:15.966Z,77.34
2023-03-17T20:37:46.873Z,76.68
2023-03-17T20:40:18.163Z,78.33
2023-03-17T20:42:48.712Z,78.68
2023-03-17T20:45:20.134Z,79.67
2023-03-17T20:47:50.826Z,79.39
2023-03-17T20:50:22.970Z,79.14
2023-03-17T20:52:53.970Z,78.67
2023-03-17T20:55:23.896Z,79.90
2023-03-17T20:57:53.607Z,77.89
2023-03-17T21:00:23.617Z,78.30
2023-03-17T21:02:53.440Z,77.51
2023-03-17T21:05:27.669Z,79.77
2023-03-17T21:07:58.411Z,80.85
2023-03-17T21:10:29.249Z,80.09
2023-03-17T21:12:59.796Z,80.49
2023-03-17T21:15:29.670Z,79.72
2023-03-17T21:17:59.427Z,79.68
2023-03-17T21:20:29.644Z,79.33
2023-03-17T21:23:00.509Z,80.48
2023-03-17T21:25:31.274Z,80.50
2023-03-17T21:28:01.678Z,79.92
2023-03-17T21:30:34.012Z,79.62
2023-03-17T21:33:05.573Z,80.26
2023-03-17T21:35:36.911Z,79.06
2023-03-17T21:38:07.026Z,80.16
2023-03-17T21:40:37.102Z,80.84
2023-03-17T21:43:08.071Z,81.31
2023-03-17T21:45:39.484Z,82.29
2023-03-17T21:48:10.598Z,81.51
2023-03-17T21:50:41.279Z,80.38
2023-03-17T21:53:15.942Z,80.26
2023-03-17T21:55:45.666Z,79.84
2023-03-17T21:58:15.335Z,80.12
2023-03-17T22:00:46.346Z,79.60
2023-03-17T22:03:16.192Z,80.74
2023-03-17T22:05:47.313Z,80.79
2023-03-17T22:08:21.638Z,83.36
2023-03-17T22:10:52.991Z,83.83
2023-03-17T22:13:22.740Z,83.14
2023-03-17T22:15:53.647Z,82.95
2023-03-17T22:18:24.187Z,82.67
2023-03-17T22:20:59.714Z,83.55
2023-03-17T22:23:30.958Z,82.06
2023-03-17T22:26:01.505Z,83.05
2023-03-17T22:28:32.533Z,83.53
2023-03-17T22:31:04.984Z,83.53
2023-03-17T22:33:35.084Z,82.73
2023-03-17T22:36:05.743Z,81.67
2023-03-17T22:38:35.892Z,81.62
2023-03-17T22:41:10.555Z,82.69
2023-03-17T22:43:41.757Z,81.80
2023-03-17T22:46:13.201Z,82.01
2023-03-17T22:48:43.217Z,81.33
2023-03-17T22:51:19.604Z,81.22
2023-03-17T22:53:48.192Z,79.62
2023-03-17T22:56:19.230Z,79.49
2023-03-17T22:58:48.314Z,78.88
2023-03-17T23:01:19.538Z,79.06
2023-03-17T23:03:48.381Z,79.05
2023-03-17T23:06:17.865Z,78.79
2023-03-17T23:08:48.220Z,81.48
2023-03-17T23:11:24.066Z,80.97
2023-03-17T23:13:54.262Z,80.76
2023-03-17T23:16:24.302Z,80.39
2023-03-17T23:18:53.937Z,80.30
2023-03-17T23:21:33.433Z,80.38
2023-03-17T23:24:05.161Z,80.58
2023-03-17T23:26:37.132Z,81.77
2023-03-17T23:29:09.679Z,81.64
2023-03-17T23:31:41.042Z,82.07
2023-03-17T23:34:12.204Z,82.25
2023-03-17T23:36:42.351Z,81.54
2023-03-17T23:39:12.236Z,82.62
2023-03-17T23:41:41.992Z,83.67
2023-03-17T23:44:11.984Z,83.86
2023-03-17T23:46:41.866Z,83.51
2023-03-17T23:49:12.344Z,82.97
2023-03-17T23:51:42.023Z,82.05
2023-03-17T23:54:11.652Z,82.29
2023-03-17T23:56:41.282Z,83.09
2023-03-17T23:59:11.893Z,83.06
